Time;durP1;ratioP1;P1;durP2;ratioP2;P2;SDS_P1;SDS_P2;PMS_P1;PMS_P2;Temp;Humidity;BMP_temperature;BMP_pressure;BME280_temperature;BME280_humidity;BME280_pressure;Samples;Min_cycle;Max_cycle;Signal;HPM_P1;HPM_P2
2023/01/01 00:02:19;;;;;;;21.73;6.90;;;;;;;13.12;100.00;99052.95;2127449;84;21019;-59
2023/01/01 00:05:21;;;;;;;23.12;7.00;;;;;;;13.08;100.00;99040.45;2127725;83;21495;-59
2023/01/01 00:08:22;;;;;;;23.90;6.85;;;;;;;13.08;100.00;99041.77;2127493;83;20989;-59
2023/01/01 00:11:24;;;;;;;22.58;7.10;;;;;;;13.10;100.00;99010.06;2127446;84;21016;-59
2023/01/01 00:14:26;;;;;;;20.72;6.67;;;;;;;13.11;100.00;99031.02;2127515;83;21039;-59
2023/01/01 00:17:28;;;;;;;20.88;6.17;;;;;;;13.18;100.00;99042.82;2127549;84;21534;-59
2023/01/01 00:20:30;;;;;;;22.10;7.17;;;;;;;13.23;100.00;99041.67;2127701;84;21072;-59
2023/01/01 00:23:31;;;;;;;23.42;7.03;;;;;;;13.26;100.00;99034.41;2127706;83;21477;-59
2023/01/01 00:26:33;;;;;;;21.62;7.05;;;;;;;13.29;100.00;99045.22;2127246;83;21077;-59
2023/01/01 00:29:34;;;;;;;23.00;7.15;;;;;;;13.31;100.00;99027.50;2127490;83;21061;-59
2023/01/01 00:32:36;;;;;;;22.80;6.80;;;;;;;13.32;100.00;99039.25;2127537;83;21016;-59
2023/01/01 00:35:37;;;;;;;22.93;7.42;;;;;;;13.38;100.00;99042.45;2127677;83;21159;-59
2023/01/01 00:38:39;;;;;;;21.70;7.45;;;;;;;13.37;100.00;99042.91;2127494;84;20999;-59
2023/01/01 00:41:40;;;;;;;22.35;7.12;;;;;;;13.38;100.00;99037.19;2127602;84;21036;-59
2023/01/01 00:44:42;;;;;;;22.85;7.62;;;;;;;13.40;100.00;99034.79;2127959;83;21495;-59
2023/01/01 00:47:43;;;;;;;23.32;7.40;;;;;;;13.42;100.00;99039.49;2127466;83;21015;-59
2023/01/01 00:50:45;;;;;;;20.82;6.60;;;;;;;13.47;100.00;99049.22;2127513;83;21063;-59
2023/01/01 00:53:46;;;;;;;25.37;8.13;;;;;;;13.46;100.00;99069.09;2127241;83;21032;-59
2023/01/01 00:56:47;;;;;;;24.63;8.23;;;;;;;13.50;100.00;99062.21;2117921;83;21009;-59
2023/01/01 00:59:49;;;;;;;22.73;7.37;;;;;;;13.51;100.00;99063.87;2118145;83;21122;-59
2023/01/01 01:02:52;;;;;;;25.00;7.80;;;;;;;13.39;100.00;99055.52;2118020;84;21121;-59
2023/01/01 01:05:53;;;;;;;22.55;8.60;;;;;;;13.44;100.00;99062.61;2117985;83;21120;-59
2023/01/01 01:08:55;;;;;;;24.07;8.33;;;;;;;13.47;100.00;99063.72;2117687;84;21040;-60
2023/01/01 01:11:56;;;;;;;24.72;8.10;;;;;;;13.41;100.00;99053.61;2118072;83;21564;-59
2023/01/01 01:14:58;;;;;;;24.23;7.53;;;;;;;13.42;100.00;99048.72;2117869;83;21084;-60
2023/01/01 01:17:59;;;;;;;23.75;8.18;;;;;;;13.49;100.00;99057.88;2117878;83;21568;-59
2023/01/01 01:21:01;;;;;;;24.90;8.80;;;;;;;13.48;100.00;99048.28;2117808;83;21540;-59
2023/01/01 01:24:02;;;;;;;23.90;8.13;;;;;;;13.52;100.00;99059.47;2118114;83;21049;-59
2023/01/01 01:27:04;;;;;;;23.62;8.05;;;;;;;13.58;100.00;99070.06;2118251;83;21545;-59
2023/01/01 01:30:06;;;;;;;24.35;8.48;;;;;;;13.55;100.00;99067.16;2118211;83;21113;-59
2023/01/01 01:33:07;;;;;;;25.05;8.13;;;;;;;13.67;100.00;99053.59;2117863;84;21095;-59
2023/01/01 01:36:09;;;;;;;25.25;9.08;;;;;;;13.74;100.00;99054.02;2118210;83;21112;-59
2023/01/01 01:39:10;;;;;;;27.70;9.03;;;;;;;13.91;100.00;99064.69;2117865;83;21100;-59
2023/01/01 01:42:13;;;;;;;23.02;7.78;;;;;;;13.76;100.00;99062.16;2118048;83;21619;-59
2023/01/01 01:45:14;;;;;;;24.75;8.38;;;;;;;13.83;100.00;99047.62;2118089;84;21052;-59
2023/01/01 01:48:16;;;;;;;27.00;9.43;;;;;;;13.80;100.00;99051.77;2118053;83;21061;-59
2023/01/01 01:51:18;;;;;;;25.05;9.13;;;;;;;13.86;100.00;99055.30;2118286;83;21583;-59
2023/01/01 01:54:19;;;;;;;24.27;9.18;;;;;;;13.84;100.00;99056.36;2118020;83;21128;-59
2023/01/01 01:57:23;;;;;;;24.72;8.70;;;;;;;13.80;100.00;99050.94;2118539;83;21563;-60
2023/01/01 02:00:24;;;;;;;23.87;8.70;;;;;;;13.79;100.00;99052.73;2098158;84;21532;-59
2023/01/01 02:03:26;;;;;;;26.95;9.35;;;;;;;13.74;100.00;99038.20;2117736;83;21092;-59
2023/01/01 02:06:27;;;;;;;27.17;9.03;;;;;;;13.74;100.00;99031.61;2118085;83;21587;-59
2023/01/01 02:09:28;;;;;;;25.02;9.13;;;;;;;13.76;100.00;99026.56;2118071;83;20993;-59
2023/01/01 02:12:30;;;;;;;24.35;8.63;;;;;;;13.75;100.00;99031.49;2118020;83;21060;-59
2023/01/01 02:15:32;;;;;;;26.90;9.53;;;;;;;13.76;100.00;99037.59;2117981;84;21150;-59
2023/01/01 02:18:33;;;;;;;26.43;9.60;;;;;;;13.77;100.00;99046.71;2118052;84;20989;-59
2023/01/01 02:21:35;;;;;;;24.25;8.48;;;;;;;13.82;100.00;99048.56;2117871;84;21120;-59
2023/01/01 02:24:36;;;;;;;27.15;9.30;;;;;;;13.83;100.00;99039.70;2118093;83;20996;-59
2023/01/01 02:27:37;;;;;;;25.43;8.80;;;;;;;13.83;100.00;99047.62;2117856;83;21624;-59
2023/01/01 02:30:39;;;;;;;26.53;9.23;;;;;;;13.86;100.00;99049.17;2117640;84;21045;-59
2023/01/01 02:33:40;;;;;;;27.60;8.83;;;;;;;13.75;100.00;99036.77;2117989;83;21048;-59
2023/01/01 02:36:42;;;;;;;25.23;9.05;;;;;;;13.76;100.00;99043.70;2117823;84;21041;-59
2023/01/01 02:39:44;;;;;;;26.37;9.35;;;;;;;13.77;100.00;99048.03;2118078;83;20985;-59
2023/01/01 02:42:46;;;;;;;27.65;9.48;;;;;;;13.75;100.00;99045.99;2118111;83;20993;-59
2023/01/01 02:45:47;;;;;;;25.40;9.53;;;;;;;13.74;100.00;99048.25;2117757;83;21125;-60
2023/01/01 02:48:49;;;;;;;26.37;9.68;;;;;;;13.69;100.00;99047.72;2117978;83;21520;-59
2023/01/01 02:51:50;;;;;;;25.48;9.73;;;;;;;13.62;100.00;99049.97;2117718;83;21000;-59
2023/01/01 02:54:51;;;;;;;24.57;8.95;;;;;;;13.56;100.00;99053.49;2117692;83;21524;-59
2023/01/01 02:57:53;;;;;;;28.53;10.07;;;;;;;13.52;100.00;99044.97;2117765;83;21056;-59
2023/01/01 03:00:54;;;;;;;28.15;9.38;;;;;;;13.47;100.00;99046.59;2117746;84;21740;-59
2023/01/01 03:03:56;;;;;;;28.70;9.75;;;;;;;13.40;100.00;99051.08;2117790;83;21052;-59
2023/01/01 03:06:58;;;;;;;26.90;10.28;;;;;;;13.35;100.00;99061.95;2117992;83;21097;-59
2023/01/01 03:10:00;;;;;;;28.10;9.97;;;;;;;13.28;100.00;99054.06;2118224;84;21548;-59
2023/01/01 03:13:02;;;;;;;26.48;10.20;;;;;;;13.23;100.00;99058.79;2117504;83;21076;-59
2023/01/01 03:16:03;;;;;;;25.95;9.40;;;;;;;13.12;100.00;99058.22;2118102;84;21000;-59
2023/01/01 03:22:08;;;;;;;27.20;9.53;;;;;;;13.08;100.00;99055.42;2097924;84;20961;-60
2023/01/01 03:25:09;;;;;;;24.43;9.18;;;;;;;12.95;100.00;99058.87;2117992;83;21539;-59
2023/01/01 03:28:11;;;;;;;27.00;8.68;;;;;;;12.90;100.00;99063.61;2118110;84;21093;-59
2023/01/01 03:31:13;;;;;;;24.90;9.50;;;;;;;13.03;100.00;99070.22;2118067;84;21080;-59
2023/01/01 03:34:14;;;;;;;24.87;8.70;;;;;;;13.00;100.00;99069.95;2117991;83;21012;-59
2023/01/01 03:37:16;;;;;;;26.77;8.70;;;;;;;12.93;100.00;99073.07;2117694;83;20998;-59
2023/01/01 03:40:18;;;;;;;23.95;8.35;;;;;;;12.95;100.00;99080.41;2117771;83;21037;-59
2023/01/01 03:43:19;;;;;;;22.37;8.08;;;;;;;13.03;100.00;99085.16;2117683;84;21837;-59
2023/01/01 03:46:21;;;;;;;24.05;8.00;;;;;;;13.16;100.00;99088.67;2117882;83;21081;-60
2023/01/01 03:49:22;;;;;;;24.97;8.47;;;;;;;13.22;100.00;99089.56;2118008;83;21044;-59
2023/01/01 03:52:24;;;;;;;23.18;8.30;;;;;;;13.24;100.00;99102.63;2118105;83;21117;-59
2023/01/01 03:55:25;;;;;;;22.90;7.80;;;;;;;13.31;100.00;99100.78;2117875;83;21020;-59
2023/01/01 03:58:27;;;;;;;22.95;7.50;;;;;;;13.31;100.00;99097.31;2117958;84;20998;-59
2023/01/01 04:01:28;;;;;;;22.90;8.23;;;;;;;13.43;100.00;99097.84;2117939;84;21037;-59
2023/01/01 04:04:30;;;;;;;23.90;7.15;;;;;;;13.46;100.00;99096.76;2117946;84;21029;-59
2023/01/01 04:07:31;;;;;;;22.45;7.53;;;;;;;13.44;100.00;99099.98;2117748;83;20984;-59
2023/01/01 04:10:33;;;;;;;21.60;6.97;;;;;;;13.56;100.00;99094.34;2117999;83;21539;-59
2023/01/01 04:13:34;;;;;;;22.93;7.40;;;;;;;13.52;100.00;99097.68;2117911;84;21043;-59
2023/01/01 04:16:36;;;;;;;23.12;7.33;;;;;;;13.54;100.00;99085.70;2117911;83;21488;-59
2023/01/01 04:19:37;;;;;;;19.90;7.10;;;;;;;13.58;100.00;99090.66;2117694;83;21048;-59
2023/01/01 04:22:38;;;;;;;22.07;7.00;;;;;;;13.60;100.00;99091.86;2118080;84;21017;-59
2023/01/01 04:25:40;;;;;;;20.68;6.83;;;;;;;13.57;100.00;99099.98;2118031;83;21105;-59
2023/01/01 04:28:41;;;;;;;22.37;6.90;;;;;;;13.53;100.00;99095.88;2118063;83;21069;-59
2023/01/01 04:31:43;;;;;;;22.30;7.65;;;;;;;13.49;100.00;99097.89;2118221;83;21088;-59
2023/01/01 04:34:44;;;;;;;23.07;7.40;;;;;;;13.48;100.00;99103.62;2118032;84;21037;-59
2023/01/01 04:37:46;;;;;;;23.35;7.20;;;;;;;13.43;100.00;99103.56;2117976;83;21564;-59
2023/01/01 04:40:47;;;;;;;23.20;7.42;;;;;;;13.48;100.00;99100.15;2118030;83;21057;-59
2023/01/01 04:43:50;;;;;;;25.52;8.15;;;;;;;13.50;100.00;99101.73;2117791;83;21097;-60
2023/01/01 04:46:51;;;;;;;24.23;8.45;;;;;;;13.53;100.00;99094.55;2117896;84;21060;-59
2023/01/01 04:49:53;;;;;;;22.93;7.78;;;;;;;13.58;100.00;99093.30;2118150;83;21543;-59
2023/01/01 04:52:54;;;;;;;23.92;7.95;;;;;;;13.62;100.00;99097.41;2118269;83;21093;-59
2023/01/01 04:55:56;;;;;;;25.80;8.50;;;;;;;13.62;100.00;99107.08;2118194;83;21090;-59
2023/01/01 04:58:57;;;;;;;24.17;7.93;;;;;;;13.67;100.00;99103.18;2118380;83;21548;-59
2023/01/01 05:01:59;;;;;;;24.30;8.08;;;;;;;13.65;100.00;99105.09;2117912;83;21129;-59
2023/01/01 05:05:00;;;;;;;25.60;7.78;;;;;;;13.62;100.00;99121.58;2118159;83;21591;-59
2023/01/01 05:08:02;;;;;;;22.30;8.20;;;;;;;13.54;100.00;99115.53;2117886;83;21104;-59
2023/01/01 05:11:03;;;;;;;23.50;8.43;;;;;;;13.47;100.00;99112.46;2117804;83;21193;-59
2023/01/01 05:14:05;;;;;;;24.60;8.73;;;;;;;13.42;100.00;99108.45;2118227;83;21045;-59
2023/01/01 05:17:06;;;;;;;25.52;8.33;;;;;;;13.36;100.00;99118.09;2118150;83;21108;-59
2023/01/01 05:20:07;;;;;;;24.23;8.18;;;;;;;13.35;100.00;99118.59;2118343;83;21069;-59
2023/01/01 05:23:09;;;;;;;27.05;8.25;;;;;;;13.30;100.00;99125.45;2118066;83;21065;-59
2023/01/01 05:26:10;;;;;;;23.92;8.35;;;;;;;13.22;100.00;99123.80;2117880;83;21108;-59
2023/01/01 05:29:12;;;;;;;23.20;8.33;;;;;;;13.21;100.00;99127.38;2118215;84;21045;-59
2023/01/01 05:32:13;;;;;;;22.42;7.45;;;;;;;13.18;100.00;99130.22;2118059;83;21143;-59
2023/01/01 05:35:15;;;;;;;24.23;8.03;;;;;;;13.16;100.00;99135.59;2118136;83;21580;-59
2023/01/01 05:38:16;;;;;;;22.95;7.35;;;;;;;13.14;100.00;99126.10;2118084;83;21072;-59
2023/01/01 05:41:18;;;;;;;22.95;7.33;;;;;;;13.16;100.00;99136.08;2118202;84;21547;-59
2023/01/01 05:44:19;;;;;;;22.25;8.03;;;;;;;13.15;100.00;99137.84;2117991;83;21045;-59
2023/01/01 05:47:21;;;;;;;21.15;7.22;;;;;;;13.04;100.00;99137.71;2117817;84;21112;-59
2023/01/01 05:50:22;;;;;;;32.05;14.23;;;;;;;13.07;100.00;99136.19;2118179;83;21057;-59
2023/01/01 05:53:24;;;;;;;25.02;10.35;;;;;;;12.96;100.00;99138.72;2117714;84;21013;-59
2023/01/01 05:56:26;;;;;;;23.47;7.92;;;;;;;12.93;100.00;99145.47;2117913;84;21130;-59
2023/01/01 05:59:27;;;;;;;25.17;9.27;;;;;;;12.91;100.00;99150.84;2118085;83;21115;-59
2023/01/01 06:02:29;;;;;;;22.57;7.47;;;;;;;12.88;100.00;99148.41;2118206;83;21037;-59
2023/01/01 06:05:30;;;;;;;24.37;7.30;;;;;;;12.87;100.00;99148.03;2118263;83;21102;-59
2023/01/01 06:08:31;;;;;;;21.45;6.65;;;;;;;12.84;100.00;99157.45;2118127;83;21540;-59
2023/01/01 06:11:33;;;;;;;22.25;7.22;;;;;;;12.86;100.00;99158.21;2117583;84;21060;-59
2023/01/01 06:14:35;;;;;;;22.40;7.50;;;;;;;12.80;100.00;99162.53;2118292;83;21465;-59
2023/01/01 06:17:37;;;;;;;28.65;10.53;;;;;;;12.74;100.00;99168.20;2117904;84;21107;-59
2023/01/01 06:20:38;;;;;;;44.95;16.37;;;;;;;12.60;100.00;99169.95;2117896;84;21552;-59
2023/01/01 06:23:39;;;;;;;41.53;14.43;;;;;;;12.53;100.00;99170.41;2117571;84;21001;-59
2023/01/01 06:26:41;;;;;;;25.37;8.10;;;;;;;12.50;100.00;99169.30;2117806;84;21001;-59
2023/01/01 06:29:42;;;;;;;29.95;11.18;;;;;;;12.48;100.00;99172.03;2118081;83;21057;-59
2023/01/01 06:32:44;;;;;;;24.72;7.90;;;;;;;12.47;100.00;99176.94;2117642;84;21080;-59
2023/01/01 06:35:45;;;;;;;26.40;8.00;;;;;;;12.39;100.00;99178.72;2117819;83;21497;-59
2023/01/01 06:38:46;;;;;;;24.18;7.80;;;;;;;12.34;100.00;99174.23;2117805;84;21053;-59
2023/01/01 06:41:48;;;;;;;23.65;7.62;;;;;;;12.36;100.00;99171.51;2117756;83;21009;-59
2023/01/01 06:44:49;;;;;;;25.48;7.90;;;;;;;12.33;100.00;99175.65;2117894;84;21041;-59
2023/01/01 06:47:51;;;;;;;26.05;7.50;;;;;;;12.30;100.00;99179.31;2117807;83;21065;-59
2023/01/01 06:50:52;;;;;;;26.10;6.78;;;;;;;12.29;100.00;99184.19;2117880;83;21056;-59
2023/01/01 06:53:54;;;;;;;25.20;7.65;;;;;;;12.25;100.00;99192.72;2118046;83;21020;-59
2023/01/01 06:56:55;;;;;;;22.45;7.12;;;;;;;12.25;100.00;99189.26;2122501;83;21551;-59
2023/01/01 06:59:57;;;;;;;24.23;7.70;;;;;;;12.26;100.00;99194.91;2127560;83;20981;-59
2023/01/01 07:02:58;;;;;;;30.27;10.43;;;;;;;12.27;100.00;99205.81;2127187;83;21608;-59
2023/01/01 07:06:00;;;;;;;25.30;8.33;;;;;;;12.29;100.00;99203.91;2127688;84;21096;-59
2023/01/01 07:09:01;;;;;;;23.12;7.53;;;;;;;12.38;100.00;99210.38;2127787;84;21015;-59
2023/01/01 07:12:03;;;;;;;24.10;7.53;;;;;;;12.39;100.00;99208.14;2127597;84;21068;-59
2023/01/01 07:15:04;;;;;;;23.70;7.15;;;;;;;12.35;100.00;99212.73;2127532;83;21762;-59
2023/01/01 07:18:06;;;;;;;25.73;8.13;;;;;;;12.39;100.00;99217.34;2127879;84;20977;-59
2023/01/01 07:21:07;;;;;;;22.27;7.50;;;;;;;12.43;100.00;99224.11;2127742;83;21012;-59
2023/01/01 07:24:09;;;;;;;24.45;8.25;;;;;;;12.47;100.00;99221.19;2127436;84;21024;-59
2023/01/01 07:27:11;;;;;;;25.27;7.70;;;;;;;12.56;100.00;99228.97;2127726;84;21101;-59
2023/01/01 07:30:12;;;;;;;22.48;7.12;;;;;;;12.51;100.00;99236.77;2127880;83;21569;-59
2023/01/01 07:33:14;;;;;;;23.85;8.05;;;;;;;12.58;100.00;99237.59;2127588;83;21011;-59
2023/01/01 07:36:15;;;;;;;24.55;7.50;;;;;;;12.63;100.00;99229.44;2127633;83;21076;-59
2023/01/01 07:39:16;;;;;;;27.13;8.55;;;;;;;12.67;100.00;99237.52;2127757;84;20984;-59
2023/01/01 07:42:18;;;;;;;25.12;7.97;;;;;;;12.69;100.00;99241.37;2127584;84;21000;-59
2023/01/01 07:45:19;;;;;;;21.37;7.45;;;;;;;12.65;100.00;99246.80;2127901;83;21504;-59
2023/01/01 07:48:21;;;;;;;24.07;7.95;;;;;;;12.72;100.00;99258.28;2127630;83;20957;-59
2023/01/01 07:51:22;;;;;;;23.20;7.55;;;;;;;12.68;100.00;99243.13;2127586;83;21550;-59
2023/01/01 07:54:24;;;;;;;23.25;7.10;;;;;;;12.69;100.00;99254.53;2127556;84;21028;-59
2023/01/01 07:57:25;;;;;;;23.73;7.92;;;;;;;12.68;100.00;99265.50;2122101;83;21028;-59
2023/01/01 08:00:26;;;;;;;26.30;8.98;;;;;;;12.73;100.00;99267.39;2118245;83;21320;-59
2023/01/01 08:03:28;;;;;;;23.57;8.53;;;;;;;12.73;100.00;99266.08;2117932;83;21062;-59
2023/01/01 08:06:29;;;;;;;25.77;8.68;;;;;;;12.80;100.00;99269.14;2118173;84;21049;-59
2023/01/01 08:09:31;;;;;;;25.68;8.30;;;;;;;12.82;100.00;99274.69;2117941;83;21086;-59
2023/01/01 08:12:32;;;;;;;27.42;8.58;;;;;;;12.81;100.00;99273.02;2118058;84;21619;-59
2023/01/01 08:15:34;;;;;;;27.30;9.00;;;;;;;12.80;100.00;99280.53;2117938;83;21076;-59
2023/01/01 08:18:35;;;;;;;24.90;7.90;;;;;;;12.84;100.00;99273.27;2118397;83;21145;-59
2023/01/01 08:21:37;;;;;;;26.40;8.77;;;;;;;12.78;100.00;99280.25;2117983;84;21132;-59
2023/01/01 08:24:38;;;;;;;24.75;8.43;;;;;;;12.77;100.00;99275.92;2117869;84;21052;-59
2023/01/01 08:27:40;;;;;;;26.37;8.40;;;;;;;12.78;100.00;99276.30;2118319;83;21057;-59
2023/01/01 08:30:41;;;;;;;26.07;8.08;;;;;;;12.70;100.00;99274.16;2117924;83;21068;-59
2023/01/01 08:33:43;;;;;;;27.82;8.03;;;;;;;12.69;100.00;99273.78;2118121;84;21114;-59
2023/01/01 08:36:44;;;;;;;25.20;7.83;;;;;;;12.64;100.00;99275.84;2118210;83;21049;-59
2023/01/01 08:39:46;;;;;;;24.90;7.42;;;;;;;12.67;100.00;99286.66;2118331;83;21049;-59
2023/01/01 08:42:47;;;;;;;23.45;8.03;;;;;;;12.67;100.00;99286.20;2117918;83;21108;-59
2023/01/01 08:45:49;;;;;;;26.17;8.03;;;;;;;12.65;100.00;99297.28;2118178;83;21515;-59
2023/01/01 08:48:50;;;;;;;23.97;8.37;;;;;;;12.65;100.00;99295.48;2118280;83;21140;-59
2023/01/01 08:51:52;;;;;;;24.43;8.40;;;;;;;12.65;100.00;99295.97;2117801;83;21052;-59
2023/01/01 08:54:53;;;;;;;24.25;8.25;;;;;;;12.63;100.00;99298.69;2118302;83;21065;-59
2023/01/01 08:57:55;;;;;;;23.77;7.92;;;;;;;12.68;100.00;99299.72;2123865;83;21131;-59
2023/01/01 09:00:56;;;;;;;28.05;9.10;;;;;;;12.67;100.00;99315.16;2127857;83;20977;-59
2023/01/01 09:03:58;;;;;;;25.17;8.40;;;;;;;12.73;100.00;99312.58;2128082;83;21049;-59
2023/01/01 09:06:59;;;;;;;25.47;7.53;;;;;;;12.71;100.00;99308.73;2128364;83;21500;-59
2023/01/01 09:10:00;;;;;;;28.73;9.95;;;;;;;12.76;100.00;99307.98;2128131;83;20989;-59
2023/01/01 09:13:02;;;;;;;29.98;9.60;;;;;;;12.89;100.00;99309.86;2128006;84;21515;-59
2023/01/01 09:16:03;;;;;;;31.23;9.43;;;;;;;12.93;100.00;99312.66;2128259;84;20997;-59
2023/01/01 09:19:05;;;;;;;27.07;8.63;;;;;;;13.17;100.00;99316.84;2128144;83;21053;-59
2023/01/01 09:22:06;;;;;;;28.17;8.75;;;;;;;13.25;100.00;99322.47;2128023;83;21468;-59
2023/01/01 09:25:08;;;;;;;24.40;7.87;;;;;;;13.39;100.00;99311.08;2128186;83;21072;-59
2023/01/01 09:28:09;;;;;;;27.43;8.10;;;;;;;13.75;100.00;99305.66;2127878;83;20985;-59
2023/01/01 09:31:11;;;;;;;26.07;9.00;;;;;;;13.75;100.00;99305.66;2128034;84;21617;-59
2023/01/01 09:34:12;;;;;;;24.98;8.03;;;;;;;14.02;100.00;99312.64;2127862;83;21238;-59
2023/01/01 09:37:14;;;;;;;25.12;8.38;;;;;;;14.23;100.00;99296.32;2128115;84;21452;-59
2023/01/01 09:40:15;;;;;;;23.00;7.23;;;;;;;14.26;100.00;99295.62;2127780;84;21005;-59
2023/01/01 09:43:17;;;;;;;23.77;7.60;;;;;;;14.30;100.00;99296.27;2127740;83;20993;-59
2023/01/01 09:46:18;;;;;;;22.40;7.40;;;;;;;14.41;100.00;99289.78;2127817;84;21566;-59
2023/01/01 09:49:19;;;;;;;22.33;7.13;;;;;;;14.49;100.00;99296.66;2127807;83;21058;-59
2023/01/01 09:52:21;;;;;;;22.65;7.10;;;;;;;14.56;100.00;99293.13;2127793;83;21578;-59
2023/01/01 09:55:23;;;;;;;26.07;7.40;;;;;;;14.69;100.00;99297.11;2127973;83;20993;-59
2023/01/01 09:58:26;;;;;;;26.45;8.13;;;;;;;14.96;100.00;99295.62;2120403;84;21077;-59
2023/01/01 10:01:28;;;;;;;23.22;7.30;;;;;;;15.19;100.00;99287.84;2118295;83;20994;-59
2023/01/01 10:04:29;;;;;;;22.17;7.47;;;;;;;15.56;100.00;99283.32;2118059;84;21049;-59
2023/01/01 10:07:31;;;;;;;23.40;8.13;;;;;;;15.80;100.00;99285.10;2118105;83;21104;-59
2023/01/01 10:10:32;;;;;;;27.57;8.33;;;;;;;15.97;100.00;99286.97;2117974;83;21223;-59
2023/01/01 10:13:34;;;;;;;23.03;7.80;;;;;;;16.20;100.00;99276.77;2118050;83;21008;-59
2023/01/01 10:16:35;;;;;;;22.27;7.05;;;;;;;16.47;100.00;99277.41;2117910;83;21477;-59
2023/01/01 10:19:37;;;;;;;22.43;6.80;;;;;;;16.51;100.00;99270.91;2118098;83;21008;-59
2023/01/01 10:22:38;;;;;;;20.35;6.30;;;;;;;16.67;100.00;99282.46;2117905;83;21036;-59
2023/01/01 10:25:40;;;;;;;23.30;7.20;;;;;;;16.78;100.00;99271.37;2118312;83;21073;-59
2023/01/01 10:28:41;;;;;;;21.02;6.28;;;;;;;17.01;100.00;99265.20;2118040;84;21089;-60
2023/01/01 10:31:43;;;;;;;26.93;7.50;;;;;;;17.06;100.00;99270.98;2118356;83;21541;-59
2023/01/01 10:34:45;;;;;;;22.65;7.17;;;;;;;17.01;100.00;99273.16;2118052;84;21077;-59
2023/01/01 10:37:48;;;;;;;21.37;6.72;;;;;;;17.09;100.00;99260.13;2118280;83;21568;-60
2023/01/01 10:40:50;;;;;;;22.48;6.87;;;;;;;17.21;100.00;99255.17;2117949;84;21096;-60
2023/01/01 10:43:51;;;;;;;22.67;6.60;;;;;;;17.28;100.00;99248.86;2118168;83;21086;-60
2023/01/01 10:46:53;;;;;;;20.97;5.87;;;;;;;17.25;100.00;99254.42;2118419;84;21557;-60
2023/01/01 10:49:54;;;;;;;20.63;6.60;;;;;;;17.28;100.00;99266.95;2118177;83;21041;-59
2023/01/01 10:52:56;;;;;;;21.17;6.28;;;;;;;17.34;100.00;99260.77;2118144;83;21559;-59
2023/01/01 10:55:57;;;;;;;20.93;6.10;;;;;;;17.30;100.00;99255.73;2118197;83;21061;-59
2023/01/01 10:58:59;;;;;;;22.47;6.47;;;;;;;17.20;100.00;99259.28;2118074;83;21626;-60
2023/01/01 11:02:00;;;;;;;19.53;6.23;;;;;;;17.08;100.00;99251.36;2118371;83;21057;-59
2023/01/01 11:05:01;;;;;;;23.98;8.35;;;;;;;17.08;100.00;99251.36;2117959;83;21044;-60
2023/01/01 11:08:03;;;;;;;22.60;6.73;;;;;;;17.10;100.00;99251.23;2118038;83;21488;-60
2023/01/01 11:11:05;;;;;;;21.37;7.47;;;;;;;17.04;100.00;99250.38;2117515;83;21041;-59
2023/01/01 11:14:07;;;;;;;22.73;7.80;;;;;;;16.97;100.00;99242.94;2118015;83;21060;-59
2023/01/01 11:17:09;;;;;;;20.88;6.35;;;;;;;17.01;100.00;99250.17;2117882;83;21065;-60
2023/01/01 11:20:10;;;;;;;23.57;7.23;;;;;;;17.03;100.00;99241.59;2118151;83;21520;-59
2023/01/01 11:23:12;;;;;;;20.80;6.73;;;;;;;17.09;100.00;99242.41;2118222;84;21053;-60
2023/01/01 11:26:13;;;;;;;23.55;7.60;;;;;;;17.17;100.00;99241.81;2117974;84;21145;-59
2023/01/01 11:29:15;;;;;;;32.20;10.50;;;;;;;17.22;100.00;99236.95;2118410;83;21041;-60
2023/01/01 11:32:16;;;;;;;26.30;9.30;;;;;;;17.12;100.00;99236.89;2117917;84;21068;-59
2023/01/01 11:35:18;;;;;;;29.80;9.80;;;;;;;17.22;100.00;99242.25;2118117;84;21738;-60
2023/01/01 11:38:19;;;;;;;42.45;13.55;;;;;;;17.12;100.00;99232.05;2117987;83;21113;-60
2023/01/01 11:41:21;;;;;;;41.37;11.87;;;;;;;17.01;100.00;99229.44;2118064;84;21041;-59
2023/01/01 11:44:22;;;;;;;36.60;10.17;;;;;;;16.97;100.00;99225.71;2118045;84;21547;-60
2023/01/01 11:47:24;;;;;;;29.37;8.87;;;;;;;16.96;100.00;99226.67;2118195;84;21755;-60
2023/01/01 11:50:26;;;;;;;25.25;8.13;;;;;;;16.99;100.00;99225.59;2118095;83;21549;-59
2023/01/01 11:53:27;;;;;;;23.50;7.20;;;;;;;16.98;100.00;99234.49;2117730;84;21076;-60
2023/01/01 11:56:29;;;;;;;23.10;6.53;;;;;;;16.90;100.00;99241.75;2117876;83;21544;-60
2023/01/01 11:59:30;;;;;;;22.73;7.43;;;;;;;16.84;100.00;99240.03;2126420;83;21044;-59
2023/01/01 12:02:32;;;;;;;20.57;5.90;;;;;;;16.82;100.00;99238.84;2127826;84;21024;-60
2023/01/01 12:05:33;;;;;;;22.20;7.47;;;;;;;16.82;100.00;99238.84;2127591;84;21577;-59
2023/01/01 12:08:35;;;;;;;20.53;7.07;;;;;;;16.88;100.00;99242.38;2127969;83;20990;-60
2023/01/01 12:11:37;;;;;;;21.60;7.10;;;;;;;16.86;100.00;99224.38;2127672;83;21364;-60
2023/01/01 12:14:38;;;;;;;21.52;6.05;;;;;;;16.91;100.00;99232.84;2127423;83;21531;-59
2023/01/01 12:17:39;;;;;;;21.77;6.27;;;;;;;16.91;100.00;99221.38;2128109;84;20997;-60
2023/01/01 12:20:41;;;;;;;25.50;7.27;;;;;;;16.79;100.00;99217.89;2127853;83;20954;-60
2023/01/01 12:23:44;;;;;;;23.52;6.60;;;;;;;16.66;100.00;99210.59;2099469;84;21516;-59
2023/01/01 12:26:45;;;;;;;25.27;7.67;;;;;;;16.67;100.00;99213.11;2127598;84;21048;-60
2023/01/01 12:29:47;;;;;;;20.67;6.10;;;;;;;16.74;100.00;99211.66;2127867;83;21468;-59
2023/01/01 12:32:48;;;;;;;23.97;7.13;;;;;;;16.78;100.00;99206.47;2127823;83;21043;-60
2023/01/01 12:35:50;;;;;;;30.67;10.83;;;;;;;16.78;100.00;99211.77;2127750;84;21045;-60
2023/01/01 12:38:51;;;;;;;31.33;9.90;;;;;;;16.90;100.00;99213.10;2127823;84;21053;-60
2023/01/01 12:41:53;;;;;;;35.25;10.85;;;;;;;16.97;100.00;99219.09;2127559;84;21084;-60
2023/01/01 12:44:54;;;;;;;26.43;8.07;;;;;;;17.00;100.00;99221.15;2127631;84;21645;-60
2023/01/01 12:47:56;;;;;;;27.65;7.87;;;;;;;17.01;100.00;99221.48;2127719;83;21016;-60
2023/01/01 12:50:57;;;;;;;22.07;6.60;;;;;;;17.12;100.00;99215.69;2128097;83;21536;-59
2023/01/01 12:53:59;;;;;;;22.00;6.60;;;;;;;17.00;100.00;99226.45;2128067;83;20989;-59
2023/01/01 12:57:00;;;;;;;22.55;7.25;;;;;;;17.10;100.00;99226.05;2127807;83;20997;-59
2023/01/01 13:00:02;;;;;;;21.43;6.60;;;;;;;17.12;100.00;99237.35;2127937;83;21025;-60
2023/01/01 13:03:03;;;;;;;22.07;6.25;;;;;;;17.16;100.00;99230.84;2127430;83;21206;-60
2023/01/01 13:06:05;;;;;;;23.75;6.97;;;;;;;17.11;100.00;99241.83;2127856;84;21040;-59
2023/01/01 13:09:07;;;;;;;20.90;6.70;;;;;;;17.09;100.00;99235.79;2127868;84;21039;-60
2023/01/01 13:12:09;;;;;;;22.60;6.60;;;;;;;16.85;100.00;99241.73;2127805;83;21601;-59
2023/01/01 13:15:10;;;;;;;21.57;6.17;;;;;;;16.90;100.00;99237.77;2127887;84;21053;-59
2023/01/01 13:18:11;;;;;;;21.37;5.70;;;;;;;17.00;100.00;99245.00;2127896;83;21056;-59
2023/01/01 13:21:13;;;;;;;20.10;5.87;;;;;;;16.86;100.00;99243.42;2128001;83;21701;-60
2023/01/01 13:24:14;;;;;;;20.10;5.93;;;;;;;16.82;100.00;99242.81;2127912;83;21033;-59
2023/01/01 13:27:16;;;;;;;19.77;6.23;;;;;;;16.73;100.00;99243.56;2128129;83;21008;-60
2023/01/01 13:30:17;;;;;;;21.33;5.87;;;;;;;16.75;100.00;99239.83;2127879;83;21709;-60
2023/01/01 13:33:22;;;;;;;21.63;6.40;;;;;;;16.78;100.00;99235.61;2127934;83;21571;-60
2023/01/01 13:36:22;;;;;;;20.70;6.40;;;;;;;16.72;100.00;99245.84;2100133;84;21519;-59
2023/01/01 13:39:23;;;;;;;23.50;6.90;;;;;;;16.52;100.00;99260.66;2127999;84;20969;-59
2023/01/01 13:42:25;;;;;;;21.90;6.87;;;;;;;16.53;100.00;99276.42;2127939;83;21076;-59
2023/01/01 13:45:26;;;;;;;21.27;7.30;;;;;;;16.47;100.00;99270.79;2128241;83;21041;-59
2023/01/01 13:48:27;;;;;;;22.57;7.33;;;;;;;16.43;100.00;99280.77;2127891;83;21119;-60
2023/01/01 13:51:29;;;;;;;22.83;7.60;;;;;;;16.28;100.00;99284.97;2128131;83;21552;-59
2023/01/01 13:54:31;;;;;;;24.80;8.25;;;;;;;16.29;100.00;99289.77;2127592;84;21080;-59
2023/01/01 13:57:32;;;;;;;24.43;8.13;;;;;;;16.18;100.00;99288.45;2128074;83;21459;-60